Time;durP1;ratioP1;P1;durP2;ratioP2;P2;SDS_P1;SDS_P2;PMS_P1;PMS_P2;Temp;Humidity;BMP_temperature;BMP_pressure;BME280_temperature;BME280_humidity;BME280_pressure;Samples;Min_cycle;Max_cycle;Signal;HPM_P1;HPM_P2
2021/07/31 00:00:18;;;;;;;18.83;8.85;;;;;;;17.82;77.42;98600.38;5091996;28;20117;-72
2021/07/31 00:02:45;;;;;;;20.05;9.90;;;;;;;17.78;77.41;98601.75;5092000;28;20071;-69
2021/07/31 00:05:11;;;;;;;16.10;9.05;;;;;;;17.76;77.54;98601.16;5093080;28;20040;-69
2021/07/31 00:07:36;;;;;;;17.08;9.45;;;;;;;17.74;77.60;98600.50;5092220;28;20135;-69
2021/07/31 00:10:03;;;;;;;15.85;9.43;;;;;;;17.69;77.51;98611.75;5092390;28;20040;-72
2021/07/31 00:12:29;;;;;;;15.95;9.88;;;;;;;17.67;77.67;98602.28;5092931;28;20633;-69
2021/07/31 00:14:55;;;;;;;16.15;9.73;;;;;;;17.64;77.73;98598.13;5093100;28;20047;-70
2021/07/31 00:17:21;;;;;;;19.38;9.73;;;;;;;17.62;77.94;98603.69;5092299;28;20069;-70
2021/07/31 00:19:46;;;;;;;18.38;8.95;;;;;;;17.59;78.09;98597.88;5092736;28;20463;-69
2021/07/31 00:22:12;;;;;;;17.45;8.82;;;;;;;17.56;78.08;98603.63;5091547;28;20032;-71
2021/07/31 00:24:38;;;;;;;18.10;8.77;;;;;;;17.51;78.35;98598.00;5073899;28;20511;-69
2021/07/31 00:27:04;;;;;;;19.45;10.15;;;;;;;17.46;78.48;98603.94;5074709;28;20051;-71
2021/07/31 00:29:30;;;;;;;17.90;9.90;;;;;;;17.45;79.01;98604.94;5090923;28;20039;-70
2021/07/31 00:31:56;;;;;;;17.20;9.95;;;;;;;17.41;78.51;98604.50;5092574;28;20043;-71
2021/07/31 00:34:21;;;;;;;16.08;9.85;;;;;;;17.40;78.49;98605.50;5092302;28;20042;-70
2021/07/31 00:36:47;;;;;;;17.38;9.23;;;;;;;17.39;78.67;98603.03;5074417;28;20051;-69
2021/07/31 00:39:13;;;;;;;20.73;9.90;;;;;;;17.38;78.94;98601.38;5091509;28;20044;-68
2021/07/31 00:41:39;;;;;;;16.70;9.55;;;;;;;17.36;78.89;98600.72;5074074;28;20055;-69
2021/07/31 00:44:05;;;;;;;19.17;10.20;;;;;;;17.35;78.67;98601.75;5091850;28;20028;-71
2021/07/31 00:46:31;;;;;;;20.65;10.23;;;;;;;17.30;78.67;98600.47;5073568;28;20055;-71
2021/07/31 00:48:58;;;;;;;18.63;9.95;;;;;;;17.27;78.91;98600.84;5091358;28;20042;-68
2021/07/31 00:51:26;;;;;;;23.00;10.25;;;;;;;17.24;79.22;98601.22;5073044;28;20577;-70
2021/07/31 00:53:53;;;;;;;20.25;10.30;;;;;;;17.22;79.44;98597.06;5091443;28;20035;-70
2021/07/31 00:56:19;;;;;;;21.75;10.38;;;;;;;17.17;79.57;98595.00;5092285;28;20051;-70
2021/07/31 00:58:46;;;;;;;18.60;10.23;;;;;;;17.14;79.38;98608.72;5091381;28;20071;-72
2021/07/31 01:01:15;;;;;;;16.30;9.65;;;;;;;17.11;79.53;98593.06;5053241;28;20040;-71
2021/07/31 01:03:41;;;;;;;19.95;10.70;;;;;;;17.11;79.70;98601.09;5067073;28;20385;-68
2021/07/31 01:06:08;;;;;;;19.67;10.30;;;;;;;17.07;79.77;98599.78;5091300;28;20032;-70
2021/07/31 01:08:34;;;;;;;18.30;9.63;;;;;;;17.06;79.63;98608.81;5091466;28;20059;-68
2021/07/31 01:11:03;;;;;;;19.48;10.13;;;;;;;17.04;79.98;98602.84;5091510;28;20071;-69
2021/07/31 01:13:30;;;;;;;21.13;9.70;;;;;;;17.03;79.46;98607.34;5091645;28;20128;-69
2021/07/31 01:16:09;;;;;;;18.73;10.18;;;;;;;17.02;79.71;98607.53;5056617;28;20388;-69
2021/07/31 01:18:38;;;;;;;20.75;10.45;;;;;;;17.02;79.75;98612.88;5090688;28;20051;-70
2021/07/31 01:21:31;;;;;;;17.58;9.85;;;;;;;16.97;79.55;98611.59;5086652;28;20036;-70
2021/07/31 01:23:59;;;;;;;18.45;10.32;;;;;;;16.95;79.74;98608.28;5073647;28;20104;-69
2021/07/31 01:26:25;;;;;;;20.35;9.73;;;;;;;16.95;79.71;98610.94;5073581;28;20675;-70
2021/07/31 01:28:50;;;;;;;19.55;9.85;;;;;;;16.91;79.95;98612.34;5091844;28;20039;-68
2021/07/31 01:31:17;;;;;;;19.15;10.35;;;;;;;16.88;79.96;98612.66;5073179;28;20043;-69
2021/07/31 01:33:43;;;;;;;21.48;9.82;;;;;;;16.86;80.15;98614.72;5073180;28;20047;-71
2021/07/31 01:36:09;;;;;;;20.98;10.30;;;;;;;16.84;80.37;98614.06;5090834;28;20040;-70
2021/07/31 01:38:41;;;;;;;18.77;10.48;;;;;;;16.82;80.07;98614.25;5073216;28;20051;-68
2021/07/31 01:41:06;;;;;;;20.85;10.32;;;;;;;16.81;80.19;98609.91;5092062;28;20040;-68
2021/07/31 01:43:32;;;;;;;17.98;9.45;;;;;;;16.82;80.06;98618.75;5094740;28;20039;-71
2021/07/31 01:45:58;;;;;;;19.50;10.05;;;;;;;16.81;80.13;98622.44;5076963;28;20040;-70
2021/07/31 01:48:24;;;;;;;19.30;9.85;;;;;;;16.79;80.05;98624.47;5094379;28;20492;-70
2021/07/31 01:50:52;;;;;;;19.92;10.10;;;;;;;16.76;80.24;98624.81;5077054;28;20071;-71
2021/07/31 01:53:19;;;;;;;19.20;9.52;;;;;;;16.73;80.29;98620.69;5076697;28;20515;-68
2021/07/31 01:55:47;;;;;;;17.75;10.25;;;;;;;16.72;80.49;98618.22;5076521;28;20123;-69
2021/07/31 01:58:15;;;;;;;18.45;10.48;;;;;;;16.67;80.62;98621.41;5095144;28;20040;-70
2021/07/31 02:00:47;;;;;;;20.80;10.55;;;;;;;16.63;80.57;98620.94;5076570;28;20455;-71
2021/07/31 02:03:24;;;;;;;19.00;9.88;;;;;;;16.62;80.70;98622.00;5075186;28;20069;-69
2021/07/31 02:06:09;;;;;;;17.83;9.50;;;;;;;16.61;80.85;98620.31;5091639;28;20627;-70
2021/07/31 02:08:36;;;;;;;19.60;10.02;;;;;;;16.61;80.83;98623.00;5094920;28;20508;-69
2021/07/31 02:11:02;;;;;;;19.75;9.48;;;;;;;16.61;80.96;98622.16;5095032;28;20054;-69
2021/07/31 02:13:29;;;;;;;17.27;10.15;;;;;;;16.60;80.85;98625.84;5094338;28;20051;-67
2021/07/31 02:15:57;;;;;;;17.17;10.00;;;;;;;16.60;80.82;98625.84;5075266;28;20039;-69
2021/07/31 02:18:31;;;;;;;17.40;10.07;;;;;;;16.62;80.54;98623.81;5091923;28;20126;-68
2021/07/31 02:20:57;;;;;;;23.73;9.68;;;;;;;16.62;80.74;98627.34;5076571;28;20529;-70
2021/07/31 02:23:39;;;;;;;19.98;10.45;;;;;;;16.62;80.63;98634.50;5076592;28;20048;-68
2021/07/31 02:26:17;;;;;;;23.95;10.38;;;;;;;16.60;80.63;98634.69;5094283;28;20097;-70
2021/07/31 02:28:53;;;;;;;47.00;19.08;;;;;;;16.62;80.67;98632.66;5076170;28;20412;-68
2021/07/31 02:31:20;;;;;;;19.05;9.93;;;;;;;16.69;80.83;98634.59;5076050;28;20055;-68
2021/07/31 02:33:48;;;;;;;18.55;9.57;;;;;;;16.73;80.56;98641.22;5076097;28;20044;-68
2021/07/31 02:36:16;;;;;;;19.35;10.02;;;;;;;16.71;80.48;98638.75;5055969;28;20044;-68
2021/07/31 02:39:03;;;;;;;17.75;10.52;;;;;;;16.71;80.32;98638.75;5076392;28;20055;-69
2021/07/31 02:41:29;;;;;;;21.83;11.18;;;;;;;16.73;80.28;98635.88;5085210;28;20493;-69
2021/07/31 02:43:57;;;;;;;32.65;15.23;;;;;;;16.74;80.23;98638.38;5089449;28;20417;-70
2021/07/31 02:46:23;;;;;;;20.73;11.25;;;;;;;16.75;80.21;98642.69;5060013;28;20040;-69
2021/07/31 02:48:50;;;;;;;27.02;12.32;;;;;;;16.75;80.26;98639.22;5094201;28;20044;-68
2021/07/31 02:51:18;;;;;;;22.00;12.38;;;;;;;16.74;80.24;98645.56;5093710;28;20100;-70
2021/07/31 02:54:02;;;;;;;28.50;13.38;;;;;;;16.76;80.00;98630.16;5093235;28;20040;-69
2021/07/31 02:56:31;;;;;;;23.10;12.68;;;;;;;16.75;80.02;98637.34;5092538;28;20523;-71
2021/07/31 02:59:03;;;;;;;22.77;12.05;;;;;;;16.77;80.20;98626.47;5075735;28;20043;-67
2021/07/31 03:01:30;;;;;;;23.83;12.45;;;;;;;16.81;79.89;98630.47;5075648;28;20089;-69
2021/07/31 03:03:56;;;;;;;22.80;11.98;;;;;;;16.86;79.86;98635.22;5075244;28;20051;-68
2021/07/31 03:06:23;;;;;;;21.55;12.02;;;;;;;16.88;79.57;98639.38;5092845;28;20055;-71
2021/07/31 03:08:50;;;;;;;22.08;11.68;;;;;;;16.92;79.76;98640.72;5075677;28;20481;-71
2021/07/31 03:11:17;;;;;;;24.92;12.00;;;;;;;16.97;79.68;98634.78;5075124;28;20048;-67
2021/07/31 03:13:43;;;;;;;20.33;11.13;;;;;;;17.01;79.34;98643.25;5093556;28;20058;-72
2021/07/31 03:16:09;;;;;;;21.02;10.95;;;;;;;17.06;79.34;98643.53;5093509;28;20063;-70
2021/07/31 03:18:38;;;;;;;22.45;10.43;;;;;;;17.14;79.33;98644.25;5075385;28;20539;-67
2021/07/31 03:21:11;;;;;;;20.25;10.07;;;;;;;17.21;78.79;98647.03;5093295;28;20108;-69
2021/07/31 03:24:09;;;;;;;21.17;10.90;;;;;;;17.27;78.75;98646.28;5039483;28;20056;-70
2021/07/31 03:26:36;;;;;;;20.50;10.52;;;;;;;17.33;78.64;98647.38;5030257;28;20041;-69
2021/07/31 03:29:05;;;;;;;22.02;9.73;;;;;;;17.41;78.10;98649.13;5038256;28;20042;-70
2021/07/31 03:31:31;;;;;;;18.58;9.63;;;;;;;17.49;77.94;98650.84;5023738;28;20072;-71
2021/07/31 03:33:59;;;;;;;19.88;9.80;;;;;;;17.53;77.69;98647.59;5023106;28;20041;-71
2021/07/31 03:36:26;;;;;;;19.48;10.10;;;;;;;17.62;77.13;98651.81;5007911;28;20037;-69
2021/07/31 03:39:12;;;;;;;20.67;9.98;;;;;;;17.71;76.73;98663.22;5033334;28;20132;-68
2021/07/31 03:41:39;;;;;;;18.25;9.63;;;;;;;17.77;76.24;98658.97;5050819;28;20044;-69
2021/07/31 03:44:07;;;;;;;20.45;9.75;;;;;;;17.82;76.14;98661.06;5033839;28;20056;-70
2021/07/31 03:46:43;;;;;;;16.00;9.80;;;;;;;17.89;75.86;98662.75;5040487;28;20163;-68
2021/07/31 03:49:09;;;;;;;91.90;38.55;;;;;;;17.95;75.43;98662.03;5032877;28;20061;-69
2021/07/31 03:51:35;;;;;;;19.75;9.55;;;;;;;18.03;74.89;98673.63;5030451;28;20037;-69
2021/07/31 03:54:01;;;;;;;17.55;9.60;;;;;;;18.10;74.44;98669.19;5030947;28;20057;-70
2021/07/31 03:56:27;;;;;;;20.17;9.75;;;;;;;18.18;74.21;98658.34;5020650;28;20045;-68
2021/07/31 03:58:57;;;;;;;23.27;9.13;;;;;;;18.26;73.67;98658.19;5040964;28;20078;-70
2021/07/31 04:01:25;;;;;;;18.17;9.25;;;;;;;18.37;73.14;98656.03;5074456;28;20044;-72
2021/07/31 04:03:53;;;;;;;16.77;9.32;;;;;;;18.47;72.90;98666.38;5074198;28;20130;-72
2021/07/31 04:06:19;;;;;;;17.30;8.52;;;;;;;18.56;72.16;98666.03;5092262;28;20116;-73
2021/07/31 04:08:48;;;;;;;19.38;9.10;;;;;;;18.64;71.74;98666.91;5092288;28;20051;-71
2021/07/31 04:11:25;;;;;;;16.98;9.07;;;;;;;18.80;71.23;98658.56;5092922;28;20051;-69
2021/07/31 04:14:10;;;;;;;16.20;8.93;;;;;;;18.95;70.42;98654.97;5091413;28;20089;-71
2021/07/31 04:16:41;;;;;;;17.85;8.35;;;;;;;19.05;70.12;98660.81;5074660;28;20100;-71
2021/07/31 04:19:07;;;;;;;15.02;8.70;;;;;;;19.15;69.39;98660.44;5092059;28;20081;-70
2021/07/31 04:21:36;;;;;;;14.07;8.68;;;;;;;19.33;68.95;98663.41;5074056;28;20040;-68
2021/07/31 04:24:04;;;;;;;18.35;9.40;;;;;;;20.46;66.39;98661.13;5054772;28;20094;-70
2021/07/31 04:26:29;;;;;;;20.63;8.80;;;;;;;22.35;60.38;98657.44;5084067;28;20041;-71
2021/07/31 04:28:55;;;;;;;16.67;9.05;;;;;;;23.73;55.58;98657.19;5073751;28;20051;-70
2021/07/31 04:31:21;;;;;;;16.50;8.43;;;;;;;25.01;52.09;98661.34;5092070;28;20044;-72
2021/07/31 04:33:47;;;;;;;18.80;8.23;;;;;;;26.19;49.14;98658.44;5092015;28;20043;-71
2021/07/31 04:36:13;;;;;;;14.38;7.47;;;;;;;27.52;46.13;98662.22;5090031;28;20043;-71
2021/07/31 04:38:39;;;;;;;17.33;9.40;;;;;;;28.64;44.13;98657.22;5072807;28;20051;-71
2021/07/31 04:41:05;;;;;;;16.58;9.35;;;;;;;29.76;41.17;98657.97;5090896;28;20043;-71
2021/07/31 04:43:32;;;;;;;14.18;7.93;;;;;;;30.41;39.18;98652.06;5090883;28;20473;-70
2021/07/31 04:45:58;;;;;;;21.35;8.07;;;;;;;30.77;37.03;98655.56;5073755;28;20139;-71
2021/07/31 04:48:25;;;;;;;13.75;8.10;;;;;;;31.30;36.99;98654.28;5091375;28;20052;-73
2021/07/31 04:50:59;;;;;;;28.42;19.70;;;;;;;32.49;34.54;98657.06;5090979;28;20158;-72
2021/07/31 04:53:26;;;;;;;18.35;8.43;;;;;;;32.12;33.46;98650.25;5073131;28;20432;-74
2021/07/31 04:55:52;;;;;;;12.38;8.30;;;;;;;32.46;33.81;98651.34;5092448;28;20127;-72
2021/07/31 04:58:18;;;;;;;12.90;8.23;;;;;;;32.64;32.90;98647.88;5092116;28;20055;-72
2021/07/31 05:00:43;;;;;;;15.70;8.00;;;;;;;33.03;31.96;98649.66;5092214;28;20036;-73
2021/07/31 05:03:09;;;;;;;15.50;7.53;;;;;;;33.55;31.92;98651.75;5092432;28;20044;-73
2021/07/31 05:05:36;;;;;;;17.30;7.87;;;;;;;34.01;30.70;98650.28;5092163;28;20044;-72
2021/07/31 05:08:03;;;;;;;14.35;7.85;;;;;;;33.74;30.53;98651.75;5072724;28;20495;-75
2021/07/31 05:10:29;;;;;;;14.30;8.05;;;;;;;33.75;30.58;98647.91;5090885;28;20043;-72
2021/07/31 05:12:55;;;;;;;13.27;7.97;;;;;;;33.28;31.17;98642.22;5091761;28;20045;-75
2021/07/31 05:15:21;;;;;;;14.97;8.17;;;;;;;32.97;30.64;98655.50;5091342;28;20278;-74
2021/07/31 05:17:47;;;;;;;13.95;8.05;;;;;;;32.88;31.17;98658.06;5092307;28;20048;-72
2021/07/31 05:20:13;;;;;;;13.77;8.60;;;;;;;33.23;31.22;98653.25;5092009;28;20388;-74
2021/07/31 05:22:40;;;;;;;12.57;7.93;;;;;;;34.81;28.58;98653.00;5073941;28;20040;-73
2021/07/31 05:25:06;;;;;;;12.50;8.60;;;;;;;33.47;29.78;98646.94;5091893;28;20051;-73
2021/07/31 05:27:31;;;;;;;15.00;8.70;;;;;;;33.27;30.66;98654.28;5091952;28;20070;-73
2021/07/31 05:29:57;;;;;;;12.07;8.37;;;;;;;34.35;29.42;98644.50;5091912;28;20067;-73
2021/07/31 05:32:23;;;;;;;15.13;8.00;;;;;;;34.56;28.69;98659.78;5092009;28;20047;-73
2021/07/31 05:34:54;;;;;;;15.80;7.90;;;;;;;33.12;29.72;98665.44;5073701;28;20040;-79
2021/07/31 05:37:19;;;;;;;16.85;8.18;;;;;;;34.10;29.61;98655.91;5056821;28;20043;-73
2021/07/31 05:39:45;;;;;;;17.23;8.20;;;;;;;34.13;28.91;98663.53;5040058;28;20070;-72
2021/07/31 05:42:11;;;;;;;13.25;8.18;;;;;;;33.94;29.56;98661.63;5091579;28;20115;-71
2021/07/31 05:44:37;;;;;;;14.23;7.60;;;;;;;34.46;28.42;98663.56;5073531;28;20093;-73
2021/07/31 05:47:03;;;;;;;15.05;8.13;;;;;;;35.28;27.28;98658.41;5073536;28;20082;-73
2021/07/31 05:49:30;;;;;;;12.32;7.80;;;;;;;35.96;26.73;98650.31;5091271;28;20071;-75
2021/07/31 05:51:56;;;;;;;13.30;7.95;;;;;;;36.96;25.17;98658.50;5091654;28;20497;-71
2021/07/31 05:54:22;;;;;;;16.13;8.90;;;;;;;35.88;26.22;98648.31;5091224;28;20531;-77
2021/07/31 05:56:49;;;;;;;15.70;8.23;;;;;;;35.26;26.69;98650.47;5056284;28;20131;-74
2021/07/31 05:59:18;;;;;;;12.65;7.88;;;;;;;34.92;26.83;98651.72;5091672;28;20044;-74
2021/07/31 06:01:44;;;;;;;13.93;8.20;;;;;;;35.31;26.65;98647.59;5091972;28;20042;-73
2021/07/31 06:04:10;;;;;;;13.07;8.07;;;;;;;35.90;25.47;98641.38;5091777;28;20127;-77
2021/07/31 06:06:35;;;;;;;21.02;7.93;;;;;;;35.83;26.17;98642.91;5091417;28;20035;-74
2021/07/31 06:09:01;;;;;;;16.95;9.57;;;;;;;36.67;24.59;98643.31;5072887;28;20452;-74
2021/07/31 06:11:27;;;;;;;17.45;10.15;;;;;;;37.50;23.63;98644.53;5090752;28;20036;-75
2021/07/31 06:13:53;;;;;;;18.33;8.70;;;;;;;36.79;24.37;98649.03;5053729;28;20519;-73
2021/07/31 06:16:19;;;;;;;16.17;8.05;;;;;;;36.80;24.41;98639.63;5087895;28;20100;-72
2021/07/31 06:18:45;;;;;;;16.27;8.35;;;;;;;37.93;23.39;98634.66;5090839;28;20078;-74
2021/07/31 06:21:17;;;;;;;12.98;7.15;;;;;;;39.12;21.11;98640.47;5089507;28;20048;-73
2021/07/31 06:24:02;;;;;;;14.15;7.43;;;;;;;39.15;20.92;98630.69;5090734;28;20097;-74
2021/07/31 06:26:28;;;;;;;9.73;6.72;;;;;;;39.60;20.21;98635.56;5090602;28;20481;-75
2021/07/31 06:28:54;;;;;;;9.82;7.47;;;;;;;39.74;19.89;98632.56;5093354;28;20062;-74
2021/07/31 06:31:20;;;;;;;12.65;6.70;;;;;;;39.70;19.93;98634.38;5084358;28;20040;-72
2021/07/31 06:33:46;;;;;;;15.55;9.05;;;;;;;39.44;20.15;98629.88;5076049;28;20074;-71
2021/07/31 06:36:12;;;;;;;12.55;8.35;;;;;;;38.17;21.60;98626.66;5094490;28;20528;-73
2021/07/31 06:38:37;;;;;;;13.25;7.10;;;;;;;37.55;22.13;98636.91;5093117;28;20052;-74
2021/07/31 06:41:05;;;;;;;13.48;7.63;;;;;;;36.84;23.53;98624.06;5094781;28;20046;-76
2021/07/31 06:43:31;;;;;;;15.98;8.13;;;;;;;36.41;23.42;98631.03;5075784;28;20413;-72
2021/07/31 06:45:57;;;;;;;12.90;7.97;;;;;;;35.83;24.14;98635.47;5094431;28;20050;-70
2021/07/31 06:48:22;;;;;;;64.88;34.28;;;;;;;36.59;24.00;98634.69;5093978;28;20046;-71
2021/07/31 06:50:51;;;;;;;14.95;8.30;;;;;;;36.34;23.48;98632.56;5094015;28;20525;-74
2021/07/31 06:53:17;;;;;;;15.40;7.38;;;;;;;36.05;22.86;98636.63;5093649;28;20134;-75
2021/07/31 06:55:43;;;;;;;12.90;7.63;;;;;;;35.82;22.56;98639.34;5093888;28;20048;-76
2021/07/31 06:58:08;;;;;;;20.08;7.25;;;;;;;37.12;21.63;98631.31;5094118;28;20123;-77
2021/07/31 07:00:34;;;;;;;10.63;6.72;;;;;;;38.97;20.39;98622.50;5093640;28;20089;-76
2021/07/31 07:03:00;;;;;;;18.95;7.50;;;;;;;37.93;20.17;98629.13;5093089;28;20036;-72
2021/07/31 07:05:26;;;;;;;24.77;7.97;;;;;;;36.96;22.20;98633.72;5093344;28;20476;-76
2021/07/31 07:07:53;;;;;;;18.10;7.00;;;;;;;37.92;20.70;98630.28;5093382;28;20040;-76
2021/07/31 07:10:19;;;;;;;16.00;6.60;;;;;;;38.44;19.87;98632.94;5094014;28;20044;-77
2021/07/31 07:12:45;;;;;;;11.10;6.00;;;;;;;39.40;17.77;98623.38;5094067;28;20385;-80
2021/07/31 07:15:11;;;;;;;13.77;6.85;;;;;;;39.59;16.78;98635.91;5093853;28;20050;-76
2021/07/31 07:17:36;;;;;;;17.92;6.60;;;;;;;39.30;17.08;98626.53;5076107;28;20050;-79
2021/07/31 07:20:02;;;;;;;10.15;6.35;;;;;;;38.34;17.85;98641.59;5094303;28;20078;-78
2021/07/31 07:22:28;;;;;;;23.20;6.10;;;;;;;38.69;17.63;98633.16;5094148;28;20043;-77
2021/07/31 07:24:54;;;;;;;10.65;5.82;;;;;;;39.70;17.33;98625.28;5094253;28;20513;-77
2021/07/31 07:27:20;;;;;;;13.80;6.47;;;;;;;39.81;16.86;98625.69;5094462;28;20520;-77
2021/07/31 07:29:45;;;;;;;16.10;5.90;;;;;;;38.66;17.16;98622.78;5094084;28;20082;-74
2021/07/31 07:32:11;;;;;;;13.88;6.00;;;;;;;39.86;16.21;98631.00;5094140;28;20086;-82
2021/07/31 07:34:38;;;;;;;15.27;6.53;;;;;;;38.74;16.92;98635.75;5094312;28;20101;-73
2021/07/31 07:37:04;;;;;;;11.85;5.40;;;;;;;38.36;16.80;98644.84;5075787;28;20105;-78
2021/07/31 07:39:30;;;;;;;32.83;12.30;;;;;;;38.32;17.31;98636.41;5093410;28;20477;-77
2021/07/31 07:41:56;;;;;;;16.88;5.60;;;;;;;39.11;16.32;98630.53;5094249;28;20462;-79
2021/07/31 07:44:21;;;;;;;13.38;5.20;;;;;;;39.54;15.56;98633.34;5094238;28;20059;-76
2021/07/31 07:46:47;;;;;;;8.60;5.97;;;;;;;40.02;15.17;98620.09;5094045;28;20036;-78
2021/07/31 07:49:13;;;;;;;11.63;5.63;;;;;;;40.70;14.58;98629.97;5093683;28;20493;-76
2021/07/31 07:51:39;;;;;;;;;;;;;;;39.39;14.96;98632.00;5093814;28;20070;-76
2021/07/31 07:54:05;;;;;;;24.95;9.20;;;;;;;38.29;16.23;98636.25;5093581;28;20342;-75
2021/07/31 07:56:31;;;;;;;13.50;8.20;;;;;;;38.15;16.23;98639.97;5094030;28;20032;-75
2021/07/31 07:58:59;;;;;;;12.73;7.13;;;;;;;38.96;15.58;98620.88;5075806;28;20523;-78
2021/07/31 08:01:25;;;;;;;11.43;6.03;;;;;;;40.32;14.47;98639.38;5093705;28;20040;-79
2021/07/31 08:03:51;;;;;;;;;;;;;;;39.76;15.02;98630.25;5094186;28;20127;-77
2021/07/31 08:06:17;;;;;;;13.02;5.60;;;;;;;40.20;14.71;98627.09;5093484;28;20010;-75
2021/07/31 08:08:44;;;;;;;14.27;6.30;;;;;;;40.11;15.06;98634.69;5093017;28;20048;-74
2021/07/31 08:11:09;;;;;;;9.02;5.60;;;;;;;39.74;15.81;98637.28;5093423;28;20051;-76
2021/07/31 08:13:35;;;;;;;;;;;;;;;39.86;15.11;98629.03;5093572;28;20488;-79
2021/07/31 08:16:01;;;;;;;13.45;7.38;;;;;;;40.32;15.03;98642.13;5093562;28;20361;-82
2021/07/31 08:18:27;;;;;;;14.70;8.52;;;;;;;39.09;15.62;98638.34;5091814;28;20177;-77
2021/07/31 08:21:00;;;;;;;18.77;6.65;;;;;;;39.16;16.21;98640.59;5058232;28;20048;-74
2021/07/31 08:23:26;;;;;;;12.75;6.40;;;;;;;39.41;16.07;98638.81;5064824;28;20129;-81
2021/07/31 08:25:54;;;;;;;13.63;6.45;;;;;;;39.52;15.87;98642.00;5087558;28;20043;-78
2021/07/31 08:28:20;;;;;;;11.25;5.53;;;;;;;39.76;16.03;98641.34;5092577;28;20040;-78
2021/07/31 08:30:46;;;;;;;;;;;;;;;40.03;15.68;98639.13;5092695;28;20047;-74
2021/07/31 08:33:11;;;;;;;13.00;6.57;;;;;;;39.57;16.02;98644.56;5091994;28;19916;-74
2021/07/31 08:35:37;;;;;;;12.13;6.20;;;;;;;40.62;15.31;98637.22;5091664;28;20401;-75
2021/07/31 08:38:03;;;;;;;12.23;6.07;;;;;;;41.00;14.92;98633.34;5092143;28;20039;-76
2021/07/31 08:40:28;;;;;;;;;;;;;;;41.02;14.83;98644.09;5092101;28;20086;-77
2021/07/31 08:42:54;;;;;;;17.13;6.65;;;;;;;40.21;15.89;98639.00;5074614;28;19923;-78
2021/07/31 08:45:20;;;;;;;;;;;;;;;40.23;15.55;98637.50;5074610;28;20051;-73
2021/07/31 08:47:47;;;;;;;14.93;6.35;;;;;;;40.17;15.43;98638.06;5073324;28;19916;-76
2021/07/31 08:50:13;;;;;;;19.67;8.65;;;;;;;40.24;15.43;98639.13;5091764;28;20139;-82
2021/07/31 08:52:40;;;;;;;13.13;7.78;;;;;;;39.44;15.82;98643.69;5073858;28;20354;-81
2021/07/31 08:55:06;;;;;;;20.83;12.15;;;;;;;39.17;16.32;98642.22;5074485;28;20044;-79
2021/07/31 08:57:32;;;;;;;;;;;;;;;38.63;17.05;98635.31;5074518;28;20052;-83
2021/07/31 08:59:57;;;;;;;17.55;8.20;;;;;;;37.02;18.34;98648.97;5074376;28;19916;-82
2021/07/31 09:02:23;;;;;;;18.85;10.82;;;;;;;37.66;17.81;98642.09;5092069;28;20048;-74
2021/07/31 09:04:52;;;;;;;12.48;6.28;;;;;;;38.46;17.42;98633.44;5074390;28;20040;-78
2021/07/31 09:07:18;;;;;;;14.18;7.55;;;;;;;38.47;17.32;98643.34;5092176;28;20059;-76
2021/07/31 09:09:46;;;;;;;21.10;9.43;;;;;;;38.33;17.12;98637.19;5092051;28;20044;-75
2021/07/31 09:12:14;;;;;;;26.88;10.90;;;;;;;37.46;18.13;98641.63;5092238;28;20051;-74
2021/07/31 09:14:45;;;;;;;18.45;10.38;;;;;;;38.38;17.15;98634.25;5092312;28;20043;-75
2021/07/31 09:17:25;;;;;;;15.55;9.02;;;;;;;38.33;17.00;98637.19;5073923;28;20039;-75
2021/07/31 09:19:55;;;;;;;13.80;7.07;;;;;;;38.57;17.18;98641.34;5091999;28;20048;-76
2021/07/31 09:22:24;;;;;;;22.13;8.32;;;;;;;37.59;17.96;98633.53;5075029;28;20055;-75
2021/07/31 09:25:13;;;;;;;16.55;9.00;;;;;;;37.76;18.21;98630.75;5092090;28;20036;-77
2021/07/31 09:27:39;;;;;;;18.50;10.88;;;;;;;38.47;17.52;98634.22;5092196;28;20046;-74
2021/07/31 09:30:05;;;;;;;20.80;9.82;;;;;;;37.90;17.98;98638.06;5092353;28;20123;-77
2021/07/31 09:32:39;;;;;;;17.63;8.55;;;;;;;38.09;18.07;98638.53;5073945;28;20044;-78
2021/07/31 09:35:22;;;;;;;12.23;7.07;;;;;;;37.12;18.40;98648.66;5092193;28;20047;-79
2021/07/31 09:37:53;;;;;;;13.75;6.22;;;;;;;37.21;18.38;98648.69;5092023;28;20051;-78
2021/07/31 09:40:30;;;;;;;14.05;6.13;;;;;;;37.80;18.03;98637.25;5092036;28;20055;-80
2021/07/31 09:43:12;;;;;;;12.15;6.20;;;;;;;37.13;18.35;98638.47;5073228;28;20533;-75
2021/07/31 09:45:38;;;;;;;10.80;5.53;;;;;;;37.44;18.05;98635.59;5091952;28;20051;-79
2021/07/31 09:48:05;;;;;;;14.00;6.72;;;;;;;37.15;19.03;98638.94;5073699;28;20044;-78
2021/07/31 09:50:46;;;;;;;13.95;5.82;;;;;;;38.23;17.31;98649.38;5091763;28;20179;-79
2021/07/31 09:53:13;;;;;;;13.52;5.38;;;;;;;37.50;17.61;98650.88;5091376;28;20481;-78
2021/07/31 09:55:50;;;;;;;13.20;5.75;;;;;;;37.62;17.52;98649.41;5091938;28;20051;-80
2021/07/31 09:58:20;;;;;;;11.27;5.68;;;;;;;37.14;18.46;98651.91;5092133;28;20493;-77
2021/07/31 10:00:51;;;;;;;12.82;7.38;;;;;;;36.23;18.74;98646.63;5091497;28;20058;-75
2021/07/31 10:03:21;;;;;;;18.25;5.53;;;;;;;35.94;19.28;98647.88;5077073;28;20047;-76
2021/07/31 10:05:48;;;;;;;11.68;5.50;;;;;;;36.93;18.27;98653.66;5095596;28;20040;-77
2021/07/31 10:08:14;;;;;;;16.90;6.63;;;;;;;36.90;18.71;98641.28;5095243;28;20416;-76
2021/07/31 10:10:43;;;;;;;12.82;5.43;;;;;;;36.90;18.52;98642.13;5095247;28;20044;-74
2021/07/31 10:13:10;;;;;;;20.17;6.95;;;;;;;36.83;18.60;98643.69;5095463;28;20436;-74
2021/07/31 10:15:36;;;;;;;20.77;8.55;;;;;;;36.08;19.20;98652.53;5060576;28;20044;-74
2021/07/31 10:18:10;;;;;;;13.27;6.78;;;;;;;35.31;19.67;98644.03;5095708;28;20047;-80
2021/07/31 10:20:37;;;;;;;14.98;7.05;;;;;;;34.12;20.74;98635.28;5095606;28;20481;-77
2021/07/31 10:23:02;;;;;;;17.98;6.30;;;;;;;33.14;21.63;98649.53;5095771;28;20405;-75
2021/07/31 10:25:28;;;;;;;13.25;5.78;;;;;;;33.12;21.71;98649.81;5095272;28;20040;-75
2021/07/31 10:28:24;;;;;;;10.13;5.00;;;;;;;33.33;22.29;98641.38;5095133;28;20055;-77
2021/07/31 10:30:50;;;;;;;15.57;7.28;;;;;;;33.67;21.95;98641.16;5095310;28;20127;-77
2021/07/31 10:33:47;;;;;;;10.97;5.73;;;;;;;33.99;21.43;98636.03;5077387;28;20281;-75
2021/07/31 10:36:34;;;;;;;12.50;5.13;;;;;;;34.35;21.23;98638.22;5095020;28;20529;-75
2021/07/31 10:39:25;;;;;;;10.07;4.97;;;;;;;34.49;20.09;98650.03;5077388;28;20055;-74
2021/07/31 10:41:57;;;;;;;12.45;5.10;;;;;;;33.89;20.86;98650.72;5095815;28;20108;-75
2021/07/31 10:44:23;;;;;;;14.40;6.18;;;;;;;34.00;21.02;98646.72;5094971;28;20044;-77
2021/07/31 10:46:51;;;;;;;17.85;8.23;;;;;;;34.24;20.88;98647.72;5094706;28;20046;-75
2021/07/31 10:49:43;;;;;;;10.70;6.00;;;;;;;32.65;22.70;98648.69;5094633;28;20044;-75
2021/07/31 10:52:50;;;;;;;13.90;7.18;;;;;;;33.00;22.67;98661.22;5040793;28;20068;-76
2021/07/31 10:55:28;;;;;;;10.55;5.60;;;;;;;33.52;22.15;98658.66;5094356;28;20550;-75
2021/07/31 10:57:54;;;;;;;14.38;5.20;;;;;;;33.20;23.06;98643.69;5076797;28;20052;-74
2021/07/31 11:00:40;;;;;;;10.03;4.53;;;;;;;33.32;22.46;98646.06;5094888;28;20105;-75
2021/07/31 11:03:14;;;;;;;6.53;4.97;;;;;;;32.41;23.48;98655.78;5093671;28;20070;-74
2021/07/31 11:05:49;;;;;;;13.80;5.10;;;;;;;31.78;24.04;98654.59;5094347;28;20135;-75
2021/07/31 11:08:17;;;;;;;15.60;7.85;;;;;;;32.43;24.34;98644.53;5094032;28;20569;-75
2021/07/31 11:10:47;;;;;;;9.93;4.90;;;;;;;32.49;23.57;98648.03;5094633;28;20048;-77
2021/07/31 11:13:19;;;;;;;10.27;4.88;;;;;;;32.35;23.41;98651.44;5094138;28;20056;-74
2021/07/31 11:16:00;;;;;;;10.90;5.20;;;;;;;32.25;23.53;98657.00;5094786;28;20044;-78
2021/07/31 11:18:35;;;;;;;10.82;4.57;;;;;;;31.99;23.49;98653.63;5094885;28;20048;-76
2021/07/31 11:21:08;;;;;;;10.32;5.00;;;;;;;31.64;24.73;98653.63;5076655;28;20078;-75
2021/07/31 11:23:42;;;;;;;12.65;4.82;;;;;;;31.06;24.26;98668.56;5094498;28;20054;-76
2021/07/31 11:26:08;;;;;;;9.60;4.60;;;;;;;30.91;24.84;98655.78;5094333;28;20481;-76
2021/07/31 11:28:37;;;;;;;12.80;5.70;;;;;;;30.62;25.73;98655.59;5076123;28;20044;-74
2021/07/31 11:31:17;;;;;;;12.77;5.57;;;;;;;30.69;25.43;98660.75;5076643;28;20055;-77